BOS weather

General Edward Lawrence Logan International Airport
Boston, Massachusetts, United States

Public forecast

Using degrees Fahrenheit for public forecast. Weather courtesy of forecast.io.

METAR (pilot weather report)

Retrieved 2017/06/28 03:54 UTC (58 minutes ago):

KBOS 280354Z 14003KT 10SM FEW180 BKN250 17/13 A2998 RMK AO2 SLP151 T01720133 $

TAF (pilot weather forecast)

Forecast is more than 6 hours old.

Retrieved 2017/06/27 18:24 UTC (10 hours ago):

TAF KBOS 271720Z 2718/2824 14006KT P6SM VCSH BKN070 FM272300 21010KT P6SM VCSH BKN045 FM280200 24006KT P6SM SCT045 FM281300 28010KT P6SM SKC FM281800 28010G17KT P6SM SCT045